createdAt,value
2023-01-25T00:00:15.146Z,21.13
2023-01-25T00:02:42.614Z,20.45
2023-01-25T00:05:09.832Z,22.05
2023-01-25T00:07:36.650Z,20.95
2023-01-25T00:10:03.682Z,21.05
2023-01-25T00:12:30.486Z,22.23
2023-01-25T00:14:57.114Z,22.83
2023-01-25T00:17:23.889Z,23.35
2023-01-25T00:19:50.605Z,21.67
2023-01-25T00:22:17.358Z,23.27
2023-01-25T00:24:44.069Z,22.80
2023-01-25T00:27:10.704Z,21.48
2023-01-25T00:30:15.242Z,22.77
2023-01-25T00:32:49.221Z,22.27
2023-01-25T00:37:46.860Z,20.80
2023-01-25T00:40:13.718Z,21.17
2023-01-25T00:42:41.027Z,22.88
2023-01-25T00:45:08.881Z,23.88
2023-01-25T00:47:35.726Z,23.40
2023-01-25T00:50:02.297Z,21.95
2023-01-25T00:52:29.057Z,22.60
2023-01-25T00:54:55.763Z,22.17
2023-01-25T00:57:22.461Z,23.50
2023-01-25T00:59:49.202Z,22.85
2023-01-25T01:02:15.907Z,21.40
2023-01-25T01:04:42.746Z,21.27
2023-01-25T01:07:12.085Z,20.60
2023-01-25T01:09:38.816Z,21.60
2023-01-25T01:12:05.550Z,22.63
2023-01-25T01:15:28.596Z,21.55
2023-01-25T01:18:51.461Z,21.45
2023-01-25T01:21:18.120Z,20.48
2023-01-25T01:23:45.061Z,21.17
2023-01-25T01:26:14.565Z,21.70
2023-01-25T01:28:42.133Z,21.70
2023-01-25T01:31:14.785Z,21.20
2023-01-25T01:33:41.756Z,20.15
2023-01-25T01:36:14.539Z,19.23
2023-01-25T01:38:42.300Z,21.58
2023-01-25T01:41:09.764Z,20.88
2023-01-25T01:43:37.179Z,23.67
2023-01-25T01:46:09.485Z,19.83
2023-01-25T01:48:57.268Z,22.05
2023-01-25T01:52:00.232Z,19.33
2023-01-25T01:54:36.192Z,21.35
2023-01-25T01:57:10.632Z,21.35
2023-01-25T02:00:06.541Z,21.52
2023-01-25T02:02:33.572Z,20.92
2023-01-25T02:05:05.524Z,21.17
2023-01-25T02:07:35.467Z,21.27
2023-01-25T02:10:06.697Z,21.35
2023-01-25T02:12:33.657Z,20.55
2023-01-25T02:15:00.316Z,20.27
2023-01-25T02:17:29.951Z,20.92
2023-01-25T02:20:26.026Z,21.70
2023-01-25T02:23:15.448Z,21.90
2023-01-25T02:25:42.355Z,20.65
2023-01-25T02:28:18.759Z,21.70
2023-01-25T02:30:46.566Z,21.30
2023-01-25T02:33:13.650Z,21.13
2023-01-25T02:35:53.879Z,20.58
2023-01-25T02:38:21.358Z,19.73
2023-01-25T02:40:56.338Z,20.25
2023-01-25T02:43:24.839Z,21.35
2023-01-25T02:46:00.443Z,20.70
2023-01-25T02:48:27.227Z,19.83
2023-01-25T02:50:53.890Z,20.30
2023-01-25T02:53:20.667Z,20.30
2023-01-25T02:55:47.315Z,20.27
2023-01-25T02:58:14.051Z,20.67
2023-01-25T03:00:40.918Z,20.38
2023-01-25T03:03:07.587Z,20.27
2023-01-25T03:05:34.310Z,20.77
2023-01-25T03:08:01.060Z,20.42
2023-01-25T03:10:27.842Z,20.48
2023-01-25T03:12:54.605Z,21.73
2023-01-25T03:15:21.269Z,21.02
2023-01-25T03:17:47.951Z,22.17
2023-01-25T03:20:14.771Z,20.88
2023-01-25T03:22:41.553Z,20.25
2023-01-25T03:25:09.119Z,20.42
2023-01-25T03:27:36.011Z,22.65
2023-01-25T03:30:02.801Z,20.75
2023-01-25T03:32:29.691Z,19.85
2023-01-25T03:34:56.505Z,19.73
2023-01-25T03:37:23.350Z,21.40
2023-01-25T03:39:50.104Z,20.20
2023-01-25T03:42:16.775Z,21.80
2023-01-25T03:44:43.433Z,21.08
2023-01-25T03:47:10.258Z,21.63
2023-01-25T03:49:36.906Z,22.77
2023-01-25T03:52:03.996Z,21.45
2023-01-25T03:54:30.961Z,22.38
2023-01-25T03:56:57.635Z,22.10
2023-01-25T03:59:24.496Z,21.58
2023-01-25T04:01:51.374Z,21.08
2023-01-25T04:04:18.052Z,21.17
2023-01-25T04:06:44.828Z,20.85
2023-01-25T04:09:14.084Z,20.98
2023-01-25T04:11:41.383Z,21.02
2023-01-25T04:14:08.212Z,20.15
2023-01-25T04:16:36.132Z,22.13
2023-01-25T04:19:03.020Z,21.00
2023-01-25T04:21:29.905Z,21.48
2023-01-25T04:23:56.647Z,21.15
2023-01-25T04:26:23.519Z,20.48
2023-01-25T04:28:50.222Z,20.13
2023-01-25T04:31:17.077Z,20.85
2023-01-25T04:33:43.931Z,20.17
2023-01-25T04:36:10.710Z,21.85
2023-01-25T04:38:37.332Z,20.55
2023-01-25T04:41:05.349Z,21.45
2023-01-25T04:43:32.006Z,22.45
2023-01-25T04:46:01.955Z,21.10
2023-01-25T04:48:28.913Z,20.83
2023-01-25T04:50:55.636Z,21.15
2023-01-25T04:53:22.379Z,21.55
2023-01-25T04:55:49.201Z,21.02
2023-01-25T04:58:16.020Z,20.55
2023-01-25T05:00:42.770Z,20.90
2023-01-25T05:03:09.452Z,20.98
2023-01-25T05:05:36.156Z,22.27
2023-01-25T05:08:02.930Z,21.13
2023-01-25T05:10:29.607Z,20.95
2023-01-25T05:12:56.270Z,20.67
2023-01-25T05:15:23.080Z,20.88
2023-01-25T05:17:49.814Z,21.38
2023-01-25T05:20:16.739Z,22.33
2023-01-25T05:22:43.442Z,20.88
2023-01-25T05:25:30.107Z,19.60
2023-01-25T05:27:56.820Z,20.20
2023-01-25T05:30:23.465Z,20.20
2023-01-25T05:32:50.674Z,21.58
2023-01-25T05:35:17.761Z,21.23
2023-01-25T05:37:44.670Z,20.27
2023-01-25T05:40:11.833Z,20.08
2023-01-25T05:42:38.682Z,19.83
2023-01-25T05:45:06.009Z,20.90
2023-01-25T05:47:32.783Z,20.58
2023-01-25T05:49:59.514Z,20.15
2023-01-25T05:52:26.789Z,20.13
2023-01-25T05:54:53.609Z,21.67
2023-01-25T05:57:20.414Z,22.15
2023-01-25T05:59:47.087Z,22.17
2023-01-25T06:02:13.793Z,20.23
2023-01-25T06:04:40.502Z,20.98
2023-01-25T06:07:07.140Z,21.60
2023-01-25T06:09:33.924Z,20.23
2023-01-25T06:12:00.677Z,20.88
2023-01-25T06:14:27.297Z,20.90
2023-01-25T06:16:53.953Z,20.33
2023-01-25T06:19:20.574Z,20.05
2023-01-25T06:21:47.380Z,20.48
2023-01-25T06:24:14.114Z,21.95
2023-01-25T06:26:40.808Z,21.08
2023-01-25T06:29:07.809Z,20.38
2023-01-25T06:31:34.968Z,22.77
2023-01-25T06:34:04.439Z,21.10
2023-01-25T06:36:31.233Z,22.58
2023-01-25T06:38:58.308Z,23.23
2023-01-25T06:41:25.536Z,22.98
2023-01-25T06:43:53.141Z,22.67
2023-01-25T06:46:20.297Z,21.42
2023-01-25T06:48:47.187Z,22.80
2023-01-25T06:51:15.184Z,23.25
2023-01-25T06:53:43.955Z,21.30
2023-01-25T06:56:17.800Z,22.55
2023-01-25T06:58:45.194Z,21.83
2023-01-25T07:01:20.007Z,19.80
2023-01-25T07:03:51.650Z,21.92
2023-01-25T07:06:19.004Z,22.83
2023-01-25T07:08:45.881Z,22.15
2023-01-25T07:11:13.905Z,21.92
2023-01-25T07:13:47.917Z,21.83
2023-01-25T07:16:19.061Z,20.42
2023-01-25T07:18:46.205Z,20.90
2023-01-25T07:21:20.202Z,20.30
2023-01-25T07:23:47.667Z,21.33
2023-01-25T07:26:24.432Z,20.60
2023-01-25T07:28:52.527Z,23.40
2023-01-25T07:31:20.213Z,21.98
2023-01-25T07:33:55.231Z,21.00
2023-01-25T07:36:22.631Z,21.95
2023-01-25T07:38:52.727Z,21.38
2023-01-25T07:41:19.385Z,20.90
2023-01-25T07:43:46.107Z,22.75
2023-01-25T07:46:14.207Z,19.70
2023-01-25T07:48:45.488Z,19.50
2023-01-25T07:51:12.269Z,21.52
2023-01-25T07:53:40.126Z,20.40
2023-01-25T07:56:07.606Z,17.80
2023-01-25T07:58:34.716Z,23.77
2023-01-25T08:01:07.838Z,17.55
2023-01-25T08:03:34.807Z,19.13
2023-01-25T08:06:01.607Z,18.85
2023-01-25T08:08:28.350Z,16.10
2023-01-25T08:10:54.994Z,18.17
2023-01-25T08:13:21.833Z,16.17
2023-01-25T08:15:55.976Z,17.58
2023-01-25T08:20:49.585Z,17.05
2023-01-25T08:23:16.324Z,17.13
2023-01-25T08:25:43.153Z,16.63
2023-01-25T08:28:09.819Z,17.25
2023-01-25T08:30:36.671Z,16.67
2023-01-25T08:33:06.029Z,15.52
2023-01-25T08:35:32.678Z,15.25
2023-01-25T08:37:59.335Z,16.30
2023-01-25T08:40:26.198Z,16.30
2023-01-25T08:42:53.254Z,15.63
2023-01-25T08:45:20.243Z,17.90
2023-01-25T08:47:46.966Z,16.65
2023-01-25T08:50:13.793Z,17.02
2023-01-25T08:52:40.541Z,15.82
2023-01-25T08:55:07.526Z,15.90
2023-01-25T08:57:34.363Z,14.68
2023-01-25T09:00:01.143Z,16.40
2023-01-25T09:02:27.855Z,17.42
2023-01-25T09:04:54.494Z,15.43
2023-01-25T09:07:21.238Z,16.77
2023-01-25T09:09:47.992Z,16.65
2023-01-25T09:12:14.636Z,16.77
2023-01-25T09:14:41.457Z,17.58
2023-01-25T09:17:09.610Z,17.90
2023-01-25T09:19:36.383Z,17.30
2023-01-25T09:22:03.645Z,18.10
2023-01-25T09:24:30.481Z,18.08
2023-01-25T09:27:00.154Z,16.98
2023-01-25T09:29:27.259Z,17.63
2023-01-25T09:31:54.176Z,17.90
2023-01-25T09:34:22.258Z,16.55
2023-01-25T09:36:59.247Z,16.95
2023-01-25T09:39:26.005Z,18.00
2023-01-25T09:42:14.070Z,16.38
2023-01-25T09:45:14.923Z,16.48
2023-01-25T09:47:48.117Z,16.25
2023-01-25T09:50:34.398Z,16.07
2023-01-25T09:53:13.072Z,16.65
2023-01-25T09:55:40.120Z,16.08
2023-01-25T09:58:17.219Z,18.08
2023-01-25T10:00:51.515Z,15.95
2023-01-25T10:03:44.162Z,17.60
2023-01-25T10:06:14.272Z,17.08
2023-01-25T10:08:51.710Z,16.45
2023-01-25T10:11:31.421Z,19.77
2023-01-25T10:13:59.053Z,19.45
2023-01-25T10:16:44.225Z,19.52
2023-01-25T10:19:46.301Z,19.27
2023-01-25T10:22:36.253Z,17.90
2023-01-25T10:25:30.910Z,19.23
2023-01-25T10:28:12.508Z,19.05
2023-01-25T10:31:06.082Z,18.67
2023-01-25T10:33:40.377Z,18.15
2023-01-25T10:36:09.832Z,17.83
2023-01-25T10:38:42.384Z,17.77
2023-01-25T10:41:40.742Z,18.52
2023-01-25T10:44:24.709Z,18.55
2023-01-25T10:47:17.804Z,21.90
2023-01-25T10:50:07.829Z,19.40
2023-01-25T10:52:37.800Z,20.48
2023-01-25T10:55:26.178Z,20.77
2023-01-25T10:57:57.969Z,19.83
2023-01-25T11:00:38.619Z,21.08
2023-01-25T11:03:06.364Z,19.83
2023-01-25T11:05:35.748Z,20.00
2023-01-25T11:08:17.728Z,20.70
2023-01-25T11:10:46.040Z,23.30
2023-01-25T11:13:16.004Z,21.95
2023-01-25T11:15:44.870Z,21.15
2023-01-25T11:18:20.277Z,22.73
2023-01-25T11:20:47.556Z,22.77
2023-01-25T11:23:24.690Z,21.20
2023-01-25T11:25:52.456Z,20.92
2023-01-25T11:28:22.110Z,21.25
2023-01-25T11:30:50.990Z,20.48
2023-01-25T11:33:20.455Z,18.88
2023-01-25T11:36:02.126Z,21.85
2023-01-25T11:38:29.147Z,22.23
2023-01-25T11:41:25.104Z,21.65
2023-01-25T11:44:21.686Z,20.58
2023-01-25T11:47:16.871Z,23.60
2023-01-25T11:49:59.431Z,21.50
2023-01-25T11:52:35.079Z,23.70
2023-01-25T11:55:12.936Z,22.83
2023-01-25T11:58:05.721Z,24.05
2023-01-25T12:00:59.189Z,23.38
2023-01-25T12:03:51.399Z,24.02
2023-01-25T12:06:24.877Z,25.55
2023-01-25T12:09:22.379Z,24.73
2023-01-25T12:11:51.783Z,24.83
2023-01-25T12:14:18.401Z,25.75
2023-01-25T12:17:03.686Z,25.02
2023-01-25T12:19:43.347Z,25.55
2023-01-25T12:22:28.900Z,27.13
2023-01-25T12:25:22.994Z,27.50
2023-01-25T12:28:34.218Z,27.95
2023-01-25T12:31:19.070Z,27.27
2023-01-25T12:34:04.921Z,27.55
2023-01-25T12:36:47.835Z,27.33
2023-01-25T12:39:21.842Z,27.48
2023-01-25T12:42:02.527Z,28.25
2023-01-25T12:44:39.081Z,26.02
2023-01-25T12:47:15.243Z,27.42
2023-01-25T12:49:58.963Z,26.63
2023-01-25T12:52:35.175Z,24.40
2023-01-25T12:55:07.665Z,25.67
2023-01-25T12:57:46.652Z,24.38
2023-01-25T13:00:24.113Z,25.33
2023-01-25T13:03:07.761Z,24.15
2023-01-25T13:05:52.061Z,25.33
2023-01-25T13:08:34.977Z,25.08
2023-01-25T13:11:13.453Z,24.95
2023-01-25T13:13:40.504Z,27.55
2023-01-25T13:16:30.382Z,26.45
2023-01-25T13:18:58.427Z,26.42
2023-01-25T13:21:37.262Z,26.55
2023-01-25T13:24:23.991Z,25.17
2023-01-25T13:26:54.164Z,26.77
2023-01-25T13:29:36.316Z,27.27
2023-01-25T13:32:04.767Z,27.65
2023-01-25T13:34:40.471Z,24.00
2023-01-25T13:37:30.097Z,23.52
2023-01-25T13:40:30.629Z,24.08
2023-01-25T13:43:16.673Z,23.55
2023-01-25T13:45:44.586Z,23.13
2023-01-25T13:48:11.286Z,23.65
2023-01-25T13:50:45.242Z,23.38
2023-01-25T13:53:14.999Z,24.63
2023-01-25T13:55:47.473Z,24.23
2023-01-25T13:58:32.175Z,26.48
2023-01-25T14:01:06.516Z,23.23
2023-01-25T14:03:55.663Z,24.98
2023-01-25T14:06:26.818Z,25.95
2023-01-25T14:08:56.645Z,23.40
2023-01-25T14:11:29.617Z,23.90
2023-01-25T14:14:21.164Z,25.45
2023-01-25T14:17:17.733Z,24.52
2023-01-25T14:19:55.406Z,24.25
2023-01-25T14:22:30.253Z,23.20
2023-01-25T14:25:17.854Z,23.35
2023-01-25T14:27:45.872Z,22.77
2023-01-25T14:30:30.831Z,22.17
2023-01-25T14:33:22.102Z,21.40
2023-01-25T14:35:55.475Z,22.88
2023-01-25T14:38:35.435Z,22.00
2023-01-25T14:41:11.155Z,20.35
2023-01-25T14:43:39.689Z,22.67
2023-01-25T14:46:27.223Z,22.48
2023-01-25T14:49:07.875Z,20.20
2023-01-25T14:51:39.438Z,23.40
2023-01-25T14:54:23.018Z,24.80
2023-01-25T14:56:54.588Z,21.20
2023-01-25T14:59:29.426Z,23.83
2023-01-25T15:02:21.476Z,24.20
2023-01-25T15:04:57.968Z,24.08
2023-01-25T15:07:45.299Z,23.58
2023-01-25T15:10:15.535Z,25.20
2023-01-25T15:12:42.460Z,24.45
2023-01-25T15:15:21.011Z,26.10
2023-01-25T15:17:49.936Z,24.27
2023-01-25T15:20:32.152Z,22.45
2023-01-25T15:23:23.373Z,24.73
2023-01-25T15:26:00.664Z,24.98
2023-01-25T15:28:29.890Z,23.65
2023-01-25T15:30:59.891Z,23.40
2023-01-25T15:33:29.569Z,24.52
2023-01-25T15:35:56.520Z,21.67
2023-01-25T15:38:24.532Z,24.27
2023-01-25T15:40:51.837Z,24.23
2023-01-25T15:43:20.061Z,20.50
2023-01-25T15:45:49.542Z,22.52
2023-01-25T15:48:19.581Z,23.20
2023-01-25T15:50:46.278Z,24.70
2023-01-25T15:53:18.188Z,22.65
2023-01-25T15:55:47.278Z,20.80
2023-01-25T15:58:24.033Z,22.35
2023-01-25T16:00:50.771Z,21.48
2023-01-25T16:03:20.724Z,19.77
2023-01-25T16:05:54.604Z,19.50
2023-01-25T16:08:21.276Z,20.88
2023-01-25T16:10:48.007Z,20.02
2023-01-25T16:13:14.876Z,21.27
2023-01-25T16:15:42.253Z,23.88
2023-01-25T16:18:14.063Z,22.55
2023-01-25T16:20:41.942Z,20.98
2023-01-25T16:23:08.648Z,21.80
2023-01-25T16:25:35.344Z,23.40
2023-01-25T16:28:02.107Z,24.42
2023-01-25T16:30:31.114Z,25.50
2023-01-25T16:32:57.975Z,21.83
2023-01-25T16:35:24.764Z,22.75
2023-01-25T16:37:51.482Z,23.30
2023-01-25T16:40:25.543Z,24.00
2023-01-25T16:45:24.068Z,20.42
2023-01-25T16:47:51.620Z,23.80
2023-01-25T16:50:20.646Z,23.52
2023-01-25T16:52:49.980Z,22.67
2023-01-25T16:55:17.763Z,23.83
2023-01-25T16:57:48.797Z,23.90
2023-01-25T17:00:15.946Z,22.50
2023-01-25T17:02:56.990Z,21.70
2023-01-25T17:05:24.916Z,23.10
2023-01-25T17:07:52.897Z,22.77
2023-01-25T17:10:20.077Z,22.90
2023-01-25T17:18:29.436Z,21.95
2023-01-25T17:21:00.648Z,20.63
2023-01-25T17:23:28.359Z,21.85
2023-01-25T17:25:56.021Z,22.67
2023-01-25T17:28:23.784Z,21.58
2023-01-25T17:30:54.529Z,21.40
2023-01-25T17:33:21.371Z,20.13
2023-01-25T17:35:48.055Z,23.05
2023-01-25T17:38:15.805Z,22.80
2023-01-25T17:40:42.512Z,22.33
2023-01-25T17:43:09.201Z,22.80
2023-01-25T17:45:39.396Z,21.08
2023-01-25T17:48:08.767Z,23.30
2023-01-25T17:50:39.786Z,19.55
2023-01-25T17:53:07.185Z,20.70
2023-01-25T17:55:37.541Z,18.95
2023-01-25T17:58:04.668Z,20.45
2023-01-25T18:00:32.031Z,20.08
2023-01-25T18:02:58.775Z,21.65
2023-01-25T18:05:28.103Z,22.35
2023-01-25T18:07:54.952Z,18.55
2023-01-25T18:10:21.614Z,19.17
2023-01-25T18:13:03.740Z,20.92
2023-01-25T18:15:32.727Z,18.92
2023-01-25T18:18:00.199Z,19.45
2023-01-25T18:20:26.842Z,19.20
2023-01-25T18:22:53.970Z,18.92
2023-01-25T18:25:35.875Z,19.75
2023-01-25T18:28:03.308Z,20.08
2023-01-25T18:30:30.211Z,18.70
2023-01-25T18:32:56.857Z,19.50
2023-01-25T18:35:25.083Z,19.92
2023-01-25T18:37:52.089Z,20.23
2023-01-25T18:40:19.822Z,18.55
2023-01-25T18:42:46.711Z,20.30
2023-01-25T18:45:13.652Z,18.80
2023-01-25T18:47:40.354Z,19.85
2023-01-25T18:50:08.383Z,19.23
2023-01-25T18:52:35.909Z,18.88
2023-01-25T18:55:02.670Z,17.77
2023-01-25T18:57:29.533Z,17.17
2023-01-25T18:59:57.899Z,18.05
2023-01-25T19:02:27.068Z,17.98
2023-01-25T19:04:53.796Z,20.10
2023-01-25T19:07:20.467Z,16.33
2023-01-25T19:09:47.883Z,16.08
2023-01-25T19:12:14.658Z,15.70
2023-01-25T19:14:41.296Z,17.65
2023-01-25T19:17:08.782Z,21.08
2023-01-25T19:19:36.095Z,18.88
2023-01-25T19:22:02.887Z,16.80
2023-01-25T19:24:29.756Z,18.17
2023-01-25T19:26:56.938Z,19.52
2023-01-25T19:29:23.622Z,17.63
2023-01-25T19:31:50.939Z,17.10
2023-01-25T19:34:17.680Z,18.08
2023-01-25T19:36:53.591Z,18.35
2023-01-25T19:39:20.421Z,17.13
2023-01-25T19:41:47.360Z,17.25
2023-01-25T19:44:14.957Z,16.92
2023-01-25T19:46:42.467Z,17.50
2023-01-25T19:49:10.783Z,17.33
2023-01-25T19:51:41.403Z,17.83
2023-01-25T19:54:16.763Z,17.13
2023-01-25T19:56:46.765Z,18.52
2023-01-25T19:59:18.817Z,18.40
2023-01-25T20:01:46.381Z,18.52
2023-01-25T20:04:20.112Z,18.55
2023-01-25T20:06:47.337Z,17.15
2023-01-25T20:09:17.177Z,16.25
2023-01-25T20:11:44.360Z,17.10
2023-01-25T20:14:13.515Z,16.15
2023-01-25T20:16:40.588Z,15.80
2023-01-25T20:19:10.510Z,14.20
2023-01-25T20:21:39.478Z,14.65
2023-01-25T20:24:07.014Z,14.07
2023-01-25T20:26:38.884Z,13.20
2023-01-25T20:29:07.072Z,14.20
2023-01-25T20:31:39.212Z,14.95
2023-01-25T20:34:15.022Z,14.98
2023-01-25T20:36:42.596Z,14.77
2023-01-25T20:39:13.175Z,14.57
2023-01-25T20:41:39.837Z,16.13
2023-01-25T20:44:08.680Z,14.85
2023-01-25T20:46:40.719Z,14.82
2023-01-25T20:49:10.193Z,14.45
2023-01-25T20:51:37.171Z,14.60
2023-01-25T20:54:04.039Z,15.50
2023-01-25T20:56:31.715Z,16.25
2023-01-25T20:58:58.554Z,16.48
2023-01-25T21:01:33.223Z,15.35
2023-01-25T21:03:59.927Z,15.25
2023-01-25T21:06:27.879Z,16.33
2023-01-25T21:08:55.170Z,16.48
2023-01-25T21:11:25.124Z,16.15
2023-01-25T21:13:53.833Z,16.50
2023-01-25T21:16:21.972Z,16.30
2023-01-25T21:18:55.087Z,15.27
2023-01-25T21:21:25.804Z,16.38
2023-01-25T21:23:53.065Z,17.10
2023-01-25T21:26:22.567Z,15.48
2023-01-25T21:28:50.454Z,17.02
2023-01-25T21:31:25.373Z,16.70
2023-01-25T21:33:52.383Z,15.73
2023-01-25T21:36:19.376Z,13.60
2023-01-25T21:38:50.657Z,12.48
2023-01-25T21:41:36.436Z,12.63
2023-01-25T21:44:21.559Z,13.82
2023-01-25T21:47:16.385Z,12.50
2023-01-25T21:49:53.814Z,13.45
2023-01-25T21:52:20.754Z,13.50
2023-01-25T21:54:47.478Z,13.63
2023-01-25T21:57:14.114Z,13.40
2023-01-25T21:59:40.959Z,13.75
2023-01-25T22:02:11.562Z,13.70
2023-01-25T22:04:38.575Z,15.40
2023-01-25T22:07:07.424Z,14.02
2023-01-25T22:09:34.414Z,14.77
2023-01-25T22:12:01.892Z,15.15
2023-01-25T22:14:28.788Z,13.68
2023-01-25T22:16:58.673Z,12.63
2023-01-25T22:19:25.419Z,14.63
2023-01-25T22:21:52.127Z,14.27
2023-01-25T22:24:19.186Z,13.23
2023-01-25T22:29:19.699Z,14.73
2023-01-25T22:31:46.395Z,14.43
2023-01-25T22:34:13.213Z,14.00
2023-01-25T22:36:39.856Z,13.30
2023-01-25T22:39:06.754Z,12.80
2023-01-25T22:41:36.791Z,12.65
2023-01-25T22:44:03.694Z,11.13
2023-01-25T22:46:30.792Z,11.93
2023-01-25T22:48:58.752Z,12.05
2023-01-25T22:51:28.521Z,12.15
2023-01-25T22:53:57.001Z,12.63
2023-01-25T22:56:34.285Z,11.32
2023-01-25T22:59:01.512Z,10.63
2023-01-25T23:01:31.699Z,12.05
2023-01-25T23:03:58.797Z,12.10
2023-01-25T23:06:31.246Z,11.27
2023-01-25T23:08:59.848Z,11.23
2023-01-25T23:11:38.148Z,11.90
2023-01-25T23:14:30.147Z,10.95
2023-01-25T23:17:17.274Z,11.55
2023-01-25T23:19:44.067Z,11.13
2023-01-25T23:22:10.692Z,12.02
2023-01-25T23:24:37.391Z,10.35
2023-01-25T23:27:04.218Z,11.50
2023-01-25T23:29:31.313Z,11.07
2023-01-25T23:31:58.244Z,11.40
2023-01-25T23:34:25.429Z,10.93
2023-01-25T23:36:52.098Z,10.25
2023-01-25T23:39:18.850Z,10.90
2023-01-25T23:41:45.538Z,10.70
2023-01-25T23:44:12.196Z,10.48
2023-01-25T23:46:38.920Z,11.32
2023-01-25T23:49:05.684Z,10.70
2023-01-25T23:51:32.401Z,10.88
2023-01-25T23:53:59.108Z,10.25
2023-01-25T23:56:25.913Z,9.70
2023-01-25T23:58:52.815Z,9.55
